createdAt,value
2023-03-10T00:00:15.548Z,13.73
2023-03-10T00:02:49.749Z,11.97
2023-03-10T00:05:20.065Z,11.23
2023-03-10T00:07:51.427Z,11.03
2023-03-10T00:10:21.352Z,12.63
2023-03-10T00:12:50.634Z,13.70
2023-03-10T00:15:20.071Z,14.10
2023-03-10T00:17:50.409Z,10.53
2023-03-10T00:20:19.780Z,11.30
2023-03-10T00:22:50.548Z,14.87
2023-03-10T00:25:20.052Z,13.93
2023-03-10T00:27:52.774Z,14.77
2023-03-10T00:30:22.150Z,11.83
2023-03-10T00:32:51.717Z,14.97
2023-03-10T00:35:21.001Z,10.77
2023-03-10T00:37:51.636Z,15.77
2023-03-10T00:40:21.267Z,9.73
2023-03-10T00:42:50.450Z,13.53
2023-03-10T00:45:19.776Z,11.33
2023-03-10T00:47:50.646Z,9.73
2023-03-10T00:50:20.622Z,10.27
2023-03-10T00:52:51.512Z,11.23
2023-03-10T00:55:20.801Z,9.93
2023-03-10T00:57:50.074Z,9.17
2023-03-10T01:00:20.274Z,10.37
2023-03-10T01:02:51.795Z,11.73
2023-03-10T01:05:21.263Z,8.93
2023-03-10T01:07:52.319Z,13.60
2023-03-10T01:10:21.686Z,10.73
2023-03-10T01:12:50.923Z,9.93
2023-03-10T01:15:20.467Z,9.40
2023-03-10T01:17:49.825Z,11.53
2023-03-10T01:20:19.594Z,11.03
2023-03-10T01:22:48.898Z,10.30
2023-03-10T01:25:19.747Z,11.40
2023-03-10T01:27:49.557Z,13.47
2023-03-10T01:30:19.056Z,12.40
2023-03-10T01:32:48.593Z,12.80
2023-03-10T01:35:17.913Z,12.27
2023-03-10T01:37:47.150Z,14.93
2023-03-10T01:40:18.958Z,13.50
2023-03-10T01:42:48.168Z,12.20
2023-03-10T01:45:57.026Z,14.17
2023-03-10T01:48:26.704Z,14.93
2023-03-10T01:50:58.710Z,14.10
2023-03-10T01:53:30.104Z,15.63
2023-03-10T01:56:04.525Z,15.00
2023-03-10T01:58:41.973Z,14.67
2023-03-10T02:01:13.400Z,18.60
2023-03-10T02:03:49.947Z,14.53
2023-03-10T02:06:22.517Z,15.93
2023-03-10T02:08:58.123Z,16.27
2023-03-10T02:11:29.091Z,16.63
2023-03-10T02:13:58.710Z,16.30
2023-03-10T02:16:28.105Z,15.63
2023-03-10T02:18:57.469Z,18.57
2023-03-10T02:21:37.575Z,14.47
2023-03-10T02:24:12.159Z,14.67
2023-03-10T02:26:51.660Z,16.43
2023-03-10T02:29:28.207Z,16.77
2023-03-10T02:31:58.656Z,19.40
2023-03-10T02:34:29.533Z,18.30
2023-03-10T02:36:59.222Z,16.20
2023-03-10T02:39:28.563Z,17.13
2023-03-10T02:41:58.143Z,15.37
2023-03-10T02:44:29.543Z,16.13
2023-03-10T02:46:58.781Z,17.00
2023-03-10T02:49:29.341Z,17.07
2023-03-10T02:52:00.913Z,15.23
2023-03-10T02:54:30.306Z,18.83
2023-03-10T02:56:59.664Z,17.17
2023-03-10T02:59:30.344Z,21.73
2023-03-10T03:01:59.588Z,18.73
2023-03-10T03:04:29.192Z,17.23
2023-03-10T03:06:58.438Z,18.40
2023-03-10T03:09:28.873Z,18.10
2023-03-10T03:12:00.235Z,18.93
2023-03-10T03:14:31.788Z,18.83
2023-03-10T03:17:01.184Z,18.47
2023-03-10T03:19:30.928Z,20.17
2023-03-10T03:22:00.726Z,17.77
2023-03-10T03:24:32.831Z,17.50
2023-03-10T03:27:02.274Z,18.77
2023-03-10T03:29:33.346Z,21.47
2023-03-10T03:32:02.738Z,16.40
2023-03-10T03:34:35.622Z,16.47
2023-03-10T03:37:07.641Z,17.47
2023-03-10T03:39:40.603Z,19.60
2023-03-10T03:42:11.318Z,23.13
2023-03-10T03:44:49.001Z,18.60
2023-03-10T03:47:18.248Z,19.03
2023-03-10T03:49:47.690Z,19.03
2023-03-10T03:52:17.076Z,18.93
2023-03-10T03:54:46.470Z,15.03
2023-03-10T03:57:16.017Z,19.27
2023-03-10T03:59:45.772Z,18.43
2023-03-10T04:02:16.580Z,16.83
2023-03-10T04:04:46.301Z,15.43
2023-03-10T04:07:18.145Z,14.70
2023-03-10T04:09:48.134Z,16.47
2023-03-10T04:12:17.418Z,17.50
2023-03-10T04:14:49.548Z,18.50
2023-03-10T04:17:20.311Z,20.07
2023-03-10T04:20:04.577Z,17.97
2023-03-10T04:22:36.662Z,19.07
2023-03-10T04:25:07.375Z,19.73
2023-03-10T04:27:37.635Z,19.77
2023-03-10T04:30:09.392Z,19.07
2023-03-10T04:32:42.428Z,16.23
2023-03-10T04:35:14.285Z,17.00
2023-03-10T04:37:45.097Z,18.10
2023-03-10T04:40:16.457Z,20.47
2023-03-10T04:42:46.476Z,19.17
2023-03-10T04:45:16.358Z,19.70
2023-03-10T04:47:47.907Z,16.90
2023-03-10T04:50:20.232Z,17.57
2023-03-10T04:52:51.440Z,19.10
2023-03-10T04:55:25.154Z,18.83
2023-03-10T04:57:54.778Z,21.67
2023-03-10T05:00:24.686Z,17.23
2023-03-10T05:02:57.114Z,20.67
2023-03-10T05:05:26.965Z,19.40
2023-03-10T05:07:56.228Z,18.63
2023-03-10T05:10:25.529Z,18.97
2023-03-10T05:12:56.899Z,19.57
2023-03-10T05:15:26.302Z,20.00
2023-03-10T05:17:56.997Z,20.87
2023-03-10T05:20:26.539Z,24.13
2023-03-10T05:22:56.015Z,21.20
2023-03-10T05:25:25.432Z,20.83
2023-03-10T05:27:54.633Z,21.43
2023-03-10T05:30:24.233Z,19.17
2023-03-10T05:32:58.203Z,22.37
2023-03-10T05:35:27.680Z,21.50
2023-03-10T05:37:56.978Z,21.77
2023-03-10T05:40:26.685Z,19.70
2023-03-10T05:42:55.998Z,20.00
2023-03-10T05:45:26.162Z,22.07
2023-03-10T05:47:55.423Z,21.23
2023-03-10T05:50:26.262Z,21.03
2023-03-10T05:52:55.820Z,20.97
2023-03-10T05:55:28.866Z,20.43
2023-03-10T05:57:58.401Z,21.67
2023-03-10T06:00:28.159Z,21.20
2023-03-10T06:03:03.289Z,24.70
2023-03-10T06:05:34.086Z,27.43
2023-03-10T06:08:03.282Z,24.33
2023-03-10T06:10:32.633Z,25.93
2023-03-10T06:13:01.993Z,29.10
2023-03-10T06:15:32.224Z,28.83
2023-03-10T06:18:01.781Z,25.37
2023-03-10T06:20:32.465Z,33.27
2023-03-10T06:23:01.750Z,27.27
2023-03-10T06:25:31.032Z,27.77
2023-03-10T06:28:00.323Z,32.40
2023-03-10T06:30:29.703Z,29.53
2023-03-10T06:33:00.026Z,31.83
2023-03-10T06:35:29.555Z,31.47
2023-03-10T06:38:00.501Z,29.27
2023-03-10T06:40:29.748Z,32.60
2023-03-10T06:42:58.962Z,32.77
2023-03-10T06:45:28.285Z,33.27
2023-03-10T06:47:57.693Z,32.70
2023-03-10T06:50:32.129Z,31.73
2023-03-10T06:53:02.760Z,31.63
2023-03-10T06:55:32.145Z,32.33
2023-03-10T06:58:01.530Z,30.97
2023-03-10T07:00:30.881Z,32.20
2023-03-10T07:03:00.544Z,34.97
2023-03-10T07:05:30.140Z,31.83
2023-03-10T07:07:59.465Z,33.37
2023-03-10T07:10:30.304Z,30.87
2023-03-10T07:12:59.718Z,29.53
2023-03-10T07:15:29.203Z,33.53
2023-03-10T07:17:59.046Z,31.70
2023-03-10T07:20:28.439Z,30.30
2023-03-10T07:22:57.873Z,30.47
2023-03-10T07:25:27.881Z,30.93
2023-03-10T07:27:58.758Z,33.20
2023-03-10T07:30:28.117Z,32.53
2023-03-10T07:32:57.385Z,30.17
2023-03-10T07:35:26.976Z,31.00
2023-03-10T07:37:56.304Z,28.27
2023-03-10T07:40:25.705Z,27.27
2023-03-10T07:42:55.849Z,29.20
2023-03-10T07:45:27.862Z,30.23
2023-03-10T07:47:57.252Z,31.47
2023-03-10T07:50:27.121Z,34.23
2023-03-10T07:52:56.500Z,33.33
2023-03-10T07:55:26.040Z,35.13
2023-03-10T07:57:57.037Z,34.63
2023-03-10T08:00:28.085Z,34.20
2023-03-10T08:02:57.490Z,32.57
2023-03-10T08:05:27.596Z,35.37
2023-03-10T08:07:57.513Z,33.03
2023-03-10T08:10:26.875Z,35.17
2023-03-10T08:12:56.203Z,34.77
2023-03-10T08:15:27.451Z,34.40
2023-03-10T08:17:56.927Z,38.57
2023-03-10T08:20:26.292Z,37.90
2023-03-10T08:22:56.006Z,37.13
2023-03-10T08:25:25.404Z,35.90
2023-03-10T08:27:54.626Z,33.27
2023-03-10T08:30:24.461Z,35.17
2023-03-10T08:32:55.267Z,33.60
2023-03-10T08:35:24.616Z,33.87
2023-03-10T08:37:55.354Z,36.77
2023-03-10T08:40:25.131Z,36.67
2023-03-10T08:42:54.746Z,38.07
2023-03-10T08:45:24.447Z,35.97
2023-03-10T08:47:55.333Z,36.70
2023-03-10T08:50:24.867Z,34.97
2023-03-10T08:52:54.198Z,34.57
2023-03-10T08:55:25.077Z,38.50
2023-03-10T08:57:54.428Z,33.80
2023-03-10T09:00:25.004Z,36.03
2023-03-10T09:02:55.769Z,41.40
2023-03-10T09:05:25.275Z,35.07
2023-03-10T09:07:54.639Z,37.23
2023-03-10T09:10:24.305Z,36.47
2023-03-10T09:13:07.245Z,30.20
2023-03-10T09:15:42.790Z,31.60
2023-03-10T09:18:15.538Z,36.63
2023-03-10T09:20:45.871Z,34.87
2023-03-10T09:23:16.789Z,32.63
2023-03-10T09:25:46.638Z,36.40
2023-03-10T09:28:18.574Z,34.83
2023-03-10T09:30:48.484Z,33.13
2023-03-10T09:33:21.180Z,33.10
2023-03-10T09:36:05.974Z,34.43
2023-03-10T09:38:35.783Z,34.40
2023-03-10T09:41:19.148Z,33.80
2023-03-10T09:43:57.058Z,31.90
2023-03-10T09:46:33.629Z,33.90
2023-03-10T09:49:11.547Z,33.60
2023-03-10T09:51:47.635Z,37.17
2023-03-10T09:54:42.254Z,34.50
2023-03-10T09:57:19.147Z,33.43
2023-03-10T09:59:50.366Z,31.53
2023-03-10T10:02:24.853Z,40.30
2023-03-10T10:05:02.012Z,33.33
2023-03-10T10:07:43.532Z,35.07
2023-03-10T10:10:19.961Z,31.67
2023-03-10T10:12:52.659Z,33.90
2023-03-10T10:15:24.743Z,35.13
2023-03-10T10:18:18.422Z,34.70
2023-03-10T10:20:59.268Z,37.13
2023-03-10T10:23:38.396Z,37.07
2023-03-10T10:26:13.871Z,37.40
2023-03-10T10:28:48.223Z,32.63
2023-03-10T10:31:20.765Z,35.60
2023-03-10T10:33:56.113Z,29.83
2023-03-10T10:36:28.954Z,32.70
2023-03-10T10:38:59.402Z,32.43
2023-03-10T10:41:31.078Z,30.57
2023-03-10T10:44:08.185Z,29.60
2023-03-10T10:46:37.776Z,33.40
2023-03-10T10:49:09.489Z,30.07
2023-03-10T10:51:40.994Z,30.10
2023-03-10T10:54:28.525Z,29.87
2023-03-10T10:56:59.636Z,30.13
2023-03-10T10:59:31.766Z,30.17
2023-03-10T11:02:02.816Z,31.73
2023-03-10T11:04:44.963Z,28.60
2023-03-10T11:07:20.127Z,31.10
2023-03-10T11:09:49.563Z,28.97
2023-03-10T11:12:26.311Z,30.70
2023-03-10T11:15:09.401Z,28.73
2023-03-10T11:17:44.558Z,30.93
2023-03-10T11:20:26.726Z,27.40
2023-03-10T11:23:09.948Z,29.83
2023-03-10T11:25:44.162Z,30.40
2023-03-10T11:28:30.309Z,28.97
2023-03-10T11:31:11.630Z,27.77
2023-03-10T11:33:48.682Z,29.33
2023-03-10T11:36:49.567Z,24.63
2023-03-10T11:39:34.292Z,26.77
2023-03-10T11:42:11.128Z,24.60
2023-03-10T11:44:44.448Z,23.10
2023-03-10T11:47:21.362Z,24.40
2023-03-10T11:49:56.603Z,23.67
2023-03-10T11:52:27.936Z,23.43
2023-03-10T11:55:05.965Z,20.97
2023-03-10T11:57:41.541Z,24.40
2023-03-10T12:00:21.502Z,20.43
2023-03-10T12:03:05.869Z,22.20
2023-03-10T12:05:44.262Z,18.27
2023-03-10T12:08:16.757Z,20.73
2023-03-10T12:10:49.490Z,21.63
2023-03-10T12:13:25.508Z,22.23
2023-03-10T12:16:00.227Z,18.80
2023-03-10T12:18:30.194Z,15.90
2023-03-10T12:21:19.310Z,14.50
2023-03-10T12:23:49.730Z,16.33
2023-03-10T12:27:00.012Z,19.43
2023-03-10T12:29:41.117Z,14.77
2023-03-10T12:32:43.219Z,15.87
2023-03-10T12:35:48.014Z,15.37
2023-03-10T12:38:45.821Z,16.77
2023-03-10T12:41:16.537Z,14.30
2023-03-10T12:43:55.868Z,13.37
2023-03-10T12:46:30.964Z,14.73
2023-03-10T12:49:16.005Z,12.27
2023-03-10T12:51:49.798Z,11.57
2023-03-10T12:54:49.661Z,11.17
2023-03-10T12:57:23.836Z,10.07
2023-03-10T13:00:01.549Z,11.63
2023-03-10T13:02:37.731Z,10.00
2023-03-10T13:05:18.690Z,11.83
2023-03-10T13:07:51.065Z,10.90
2023-03-10T13:10:22.941Z,8.73
2023-03-10T13:12:56.092Z,8.80
2023-03-10T13:15:28.995Z,10.40
2023-03-10T13:18:12.018Z,10.30
2023-03-10T13:20:41.524Z,10.90
2023-03-10T13:23:23.137Z,9.13
2023-03-10T13:25:56.458Z,11.60
2023-03-10T13:28:26.753Z,7.93
2023-03-10T13:31:11.822Z,9.70
2023-03-10T13:33:52.264Z,11.63
2023-03-10T13:36:24.404Z,8.93
2023-03-10T13:38:53.656Z,9.67
2023-03-10T13:41:23.003Z,8.17
2023-03-10T13:43:54.262Z,8.93
2023-03-10T13:46:28.341Z,10.87
2023-03-10T13:49:03.942Z,9.53
2023-03-10T13:51:35.335Z,6.87
2023-03-10T13:54:21.435Z,7.67
2023-03-10T13:56:53.363Z,6.70
2023-03-10T13:59:25.278Z,7.00
2023-03-10T14:01:59.398Z,6.90
2023-03-10T14:04:44.001Z,6.93
2023-03-10T14:07:17.311Z,6.17
2023-03-10T14:09:48.157Z,6.70
2023-03-10T14:12:37.315Z,6.17
2023-03-10T14:15:22.147Z,10.07
2023-03-10T14:18:14.010Z,7.70
2023-03-10T14:20:44.522Z,7.47
2023-03-10T14:23:37.173Z,5.67
2023-03-10T14:26:15.131Z,6.50
2023-03-10T14:28:44.370Z,4.80
2023-03-10T14:31:24.295Z,5.20
2023-03-10T14:33:56.010Z,6.40
2023-03-10T14:36:26.266Z,7.87
2023-03-10T14:38:55.564Z,5.57
2023-03-10T14:41:26.888Z,5.40
2023-03-10T14:43:56.408Z,6.30
2023-03-10T14:46:26.008Z,4.97
2023-03-10T14:48:57.309Z,7.73
2023-03-10T14:51:35.421Z,5.00
2023-03-10T14:54:06.106Z,10.07
2023-03-10T14:56:35.696Z,7.67
2023-03-10T14:59:06.952Z,8.20
2023-03-10T15:01:38.890Z,4.93
2023-03-10T15:04:16.232Z,6.43
2023-03-10T15:06:46.168Z,6.43
2023-03-10T15:09:15.986Z,5.03
2023-03-10T15:11:45.753Z,6.83
2023-03-10T15:14:19.156Z,6.80
2023-03-10T15:16:48.688Z,8.53
2023-03-10T15:19:24.485Z,5.87
2023-03-10T15:21:54.379Z,6.43
2023-03-10T15:24:23.682Z,5.80
2023-03-10T15:26:53.250Z,8.07
2023-03-10T15:29:23.808Z,7.17
2023-03-10T15:31:53.249Z,8.07
2023-03-10T15:34:24.843Z,5.63
2023-03-10T15:36:56.666Z,7.53
2023-03-10T15:39:32.077Z,7.53
2023-03-10T15:42:02.710Z,6.47
2023-03-10T15:44:32.795Z,6.00
2023-03-10T15:47:02.533Z,6.83
2023-03-10T15:49:33.653Z,10.40
2023-03-10T15:52:04.590Z,6.33
2023-03-10T15:54:35.291Z,5.37
2023-03-10T15:57:33.365Z,7.10
2023-03-10T16:00:45.034Z,7.40
2023-03-10T16:03:28.000Z,4.53
2023-03-10T16:05:58.732Z,5.40
2023-03-10T16:08:29.288Z,5.13
2023-03-10T16:10:58.586Z,5.87
2023-03-10T16:13:28.549Z,6.60
2023-03-10T16:15:58.282Z,5.17
2023-03-10T16:18:27.667Z,5.43
2023-03-10T16:20:59.421Z,8.97
2023-03-10T16:23:29.155Z,8.23
2023-03-10T16:26:09.612Z,4.70
2023-03-10T16:28:41.096Z,5.67
2023-03-10T16:31:12.336Z,12.17
2023-03-10T16:33:42.396Z,5.03
2023-03-10T16:36:16.409Z,6.30
2023-03-10T16:38:50.260Z,5.93
2023-03-10T16:41:20.574Z,5.30
2023-03-10T16:43:50.548Z,6.03
2023-03-10T16:46:25.670Z,5.10
2023-03-10T16:48:56.380Z,6.07
2023-03-10T16:51:30.070Z,5.70
2023-03-10T16:54:03.806Z,5.13
2023-03-10T16:56:38.078Z,6.93
2023-03-10T16:59:07.888Z,5.97
2023-03-10T17:01:38.140Z,7.63
2023-03-10T17:05:31.637Z,8.10
2023-03-10T17:08:06.249Z,5.20
2023-03-10T17:10:37.287Z,8.10
2023-03-10T17:13:06.732Z,9.93
2023-03-10T17:15:57.441Z,10.30
2023-03-10T17:18:40.895Z,8.13
2023-03-10T17:21:16.357Z,9.50
2023-03-10T17:23:48.721Z,7.80
2023-03-10T17:26:19.584Z,12.47
2023-03-10T17:28:51.587Z,12.27
2023-03-10T17:31:23.882Z,15.63
2023-03-10T17:33:54.493Z,13.60
2023-03-10T17:36:24.363Z,9.00
2023-03-10T17:38:56.948Z,12.20
2023-03-10T17:41:28.589Z,9.10
2023-03-10T17:44:02.421Z,11.93
2023-03-10T17:46:33.768Z,13.27
2023-03-10T17:49:04.512Z,10.17
2023-03-10T17:51:35.030Z,9.57
2023-03-10T17:54:06.606Z,10.30
2023-03-10T17:56:37.819Z,9.57
2023-03-10T17:59:08.912Z,8.47
2023-03-10T18:01:42.819Z,10.83
2023-03-10T18:04:13.693Z,10.53
2023-03-10T18:06:44.379Z,11.07
2023-03-10T18:09:19.923Z,9.20
2023-03-10T18:11:50.207Z,11.80
2023-03-10T18:14:20.552Z,13.07
2023-03-10T18:16:50.682Z,11.50
2023-03-10T18:19:21.625Z,8.50
2023-03-10T18:21:53.645Z,9.83
2023-03-10T18:24:24.906Z,11.73
2023-03-10T18:26:56.574Z,8.17
2023-03-10T18:29:27.533Z,11.47
2023-03-10T18:31:58.023Z,10.37
2023-03-10T18:34:28.636Z,14.63
2023-03-10T18:36:59.739Z,9.70
2023-03-10T18:39:32.939Z,12.17
2023-03-10T18:42:04.004Z,11.73
2023-03-10T18:44:35.074Z,10.73
2023-03-10T18:47:06.212Z,14.60
2023-03-10T18:49:36.835Z,11.63
2023-03-10T18:52:08.221Z,15.40
2023-03-10T18:54:40.345Z,12.20
2023-03-10T18:57:11.645Z,15.83
2023-03-10T18:59:42.679Z,14.50
2023-03-10T19:02:16.200Z,14.77
2023-03-10T19:04:48.274Z,14.60
2023-03-10T19:07:21.191Z,14.03
2023-03-10T19:09:57.485Z,16.37
2023-03-10T19:12:30.948Z,21.27
2023-03-10T19:15:06.024Z,22.77
2023-03-10T19:17:36.844Z,16.80
2023-03-10T19:20:09.935Z,17.13
2023-03-10T19:22:41.398Z,16.80
2023-03-10T19:25:16.160Z,19.00
2023-03-10T19:27:47.329Z,18.33
2023-03-10T19:30:20.644Z,17.70
2023-03-10T19:32:51.574Z,19.33
2023-03-10T19:35:22.992Z,18.33
2023-03-10T19:37:55.030Z,24.40
2023-03-10T19:40:29.166Z,25.03
2023-03-10T19:43:02.441Z,22.80
2023-03-10T19:45:34.793Z,22.83
2023-03-10T19:48:06.499Z,20.20
2023-03-10T19:50:37.786Z,24.43
2023-03-10T19:53:10.260Z,24.03
2023-03-10T19:55:44.338Z,25.33
2023-03-10T19:58:16.066Z,25.97
2023-03-10T20:00:47.187Z,25.90
2023-03-10T20:03:21.561Z,34.20
2023-03-10T20:05:52.861Z,26.30
2023-03-10T20:08:25.964Z,28.53
2023-03-10T20:11:02.855Z,28.60
2023-03-10T20:13:40.790Z,26.17
2023-03-10T20:16:12.504Z,29.27
2023-03-10T20:18:43.480Z,29.53
2023-03-10T20:21:14.672Z,30.13
2023-03-10T20:23:50.796Z,30.37
2023-03-10T20:26:23.586Z,30.40
2023-03-10T20:28:54.821Z,26.97
2023-03-10T20:31:27.008Z,35.27
2023-03-10T20:33:58.839Z,30.67
2023-03-10T20:36:36.152Z,35.43
2023-03-10T20:39:07.461Z,34.07
2023-03-10T20:41:39.629Z,37.30
2023-03-10T20:44:15.107Z,34.03
2023-03-10T20:46:46.154Z,37.53
2023-03-10T20:49:17.694Z,41.63
2023-03-10T20:51:48.757Z,41.93
2023-03-10T20:54:20.042Z,42.03
2023-03-10T20:56:53.505Z,41.53
2023-03-10T20:59:24.679Z,41.30
2023-03-10T21:01:55.520Z,39.30
2023-03-10T21:04:28.120Z,43.53
2023-03-10T21:06:58.752Z,40.20
2023-03-10T21:09:29.547Z,42.67
2023-03-10T21:12:03.154Z,43.87
2023-03-10T21:14:35.145Z,42.17
2023-03-10T21:17:06.910Z,44.33
2023-03-10T21:19:37.900Z,42.77
2023-03-10T21:22:08.493Z,40.50
2023-03-10T21:24:38.706Z,40.53
2023-03-10T21:27:10.854Z,40.40
2023-03-10T21:29:42.633Z,38.13
2023-03-10T21:32:12.435Z,41.97
2023-03-10T21:34:43.407Z,36.17
2023-03-10T21:37:14.057Z,39.73
2023-03-10T21:39:44.409Z,35.97
2023-03-10T21:42:16.948Z,39.33
2023-03-10T21:44:48.228Z,36.50
2023-03-10T21:47:18.432Z,38.53
2023-03-10T21:49:48.122Z,39.57
2023-03-10T21:52:17.656Z,38.80
2023-03-10T21:54:47.242Z,40.47
2023-03-10T21:57:18.250Z,39.43
2023-03-10T21:59:47.562Z,41.03
2023-03-10T22:02:25.180Z,37.17
2023-03-10T22:04:54.690Z,36.83
2023-03-10T22:07:24.324Z,36.37
2023-03-10T22:09:53.599Z,36.70
2023-03-10T22:12:24.339Z,37.53
2023-03-10T22:14:56.744Z,37.70
2023-03-10T22:17:26.380Z,37.97
2023-03-10T22:19:56.427Z,40.07
2023-03-10T22:22:26.232Z,35.13
2023-03-10T22:24:55.534Z,39.43
2023-03-10T22:27:26.210Z,35.50
2023-03-10T22:29:55.966Z,41.40
2023-03-10T22:32:25.321Z,36.20
2023-03-10T22:34:54.606Z,35.53
2023-03-10T22:37:23.872Z,36.60
2023-03-10T22:39:53.211Z,39.03
2023-03-10T22:42:22.503Z,34.27
2023-03-10T22:44:53.182Z,33.53
2023-03-10T22:47:22.493Z,36.20
2023-03-10T22:49:51.820Z,32.77
2023-03-10T22:52:21.169Z,31.63
2023-03-10T22:54:50.611Z,30.60
2023-03-10T22:57:19.880Z,30.13
2023-03-10T22:59:49.081Z,28.67
2023-03-10T23:02:19.900Z,31.93
2023-03-10T23:04:49.112Z,32.00
2023-03-10T23:07:18.416Z,29.60
2023-03-10T23:09:47.829Z,26.97
2023-03-10T23:12:17.160Z,27.23
2023-03-10T23:14:46.505Z,30.50
2023-03-10T23:17:16.103Z,26.60
2023-03-10T23:19:51.517Z,31.37
2023-03-10T23:22:20.779Z,26.43
2023-03-10T23:24:50.707Z,28.63
2023-03-10T23:27:20.486Z,26.77
2023-03-10T23:29:49.826Z,22.97
2023-03-10T23:32:19.170Z,22.97
2023-03-10T23:34:49.905Z,23.50
2023-03-10T23:37:19.717Z,22.27
2023-03-10T23:39:49.366Z,21.57
2023-03-10T23:42:18.724Z,20.33
2023-03-10T23:44:50.143Z,20.73
2023-03-10T23:47:19.555Z,21.57
2023-03-10T23:49:50.347Z,20.47
2023-03-10T23:52:19.579Z,23.87
2023-03-10T23:54:48.838Z,20.47
2023-03-10T23:57:18.064Z,21.03
2023-03-10T23:59:47.579Z,20.23
